sensor_id;sensor_type;location;lat;lon;timestamp;pressure;altitude;pressure_sealevel;temperature;humidity
13434;BME280;6789;47.678;9.158;2023-04-29T00:09:25;96454.63;;;14.08;100.00
13434;BME280;6789;47.678;9.158;2023-04-29T00:14:52;96446.72;;;14.08;100.00
13434;BME280;6789;47.678;9.158;2023-04-29T00:20:26;96450.13;;;14.08;100.00
13434;BME280;6789;47.678;9.158;2023-04-29T00:26:10;96454.88;;;14.06;100.00
13434;BME280;6789;47.678;9.158;2023-04-29T00:31:17;96454.59;;;14.03;100.00
13434;BME280;6789;47.678;9.158;2023-04-29T00:41:29;96440.84;;;14.01;100.00
13434;BME280;6789;47.678;9.158;2023-04-29T00:46:23;96443.75;;;13.99;100.00
13434;BME280;6789;47.678;9.158;2023-04-29T00:51:17;96448.75;;;14.01;100.00
13434;BME280;6789;47.678;9.158;2023-04-29T00:56:09;96451.16;;;14.02;100.00
13434;BME280;6789;47.678;9.158;2023-04-29T01:01:04;96445.88;;;14.02;100.00
13434;BME280;6789;47.678;9.158;2023-04-29T01:17:10;96448.19;;;13.94;100.00
13434;BME280;6789;47.678;9.158;2023-04-29T01:22:06;96446.59;;;13.93;100.00
13434;BME280;6789;47.678;9.158;2023-04-29T01:27:21;96437.13;;;13.92;100.00
13434;BME280;6789;47.678;9.158;2023-04-29T01:32:27;96431.78;;;13.87;100.00
13434;BME280;6789;47.678;9.158;2023-04-29T01:37:34;96422.50;;;13.79;100.00
13434;BME280;6789;47.678;9.158;2023-04-29T01:43:09;96424.28;;;13.74;100.00
13434;BME280;6789;47.678;9.158;2023-04-29T01:48:26;96425.66;;;13.76;100.00
13434;BME280;6789;47.678;9.158;2023-04-29T01:53:33;96422.59;;;13.63;100.00
13434;BME280;6789;47.678;9.158;2023-04-29T01:58:40;96419.97;;;13.63;100.00
13434;BME280;6789;47.678;9.158;2023-04-29T02:03:46;96422.59;;;13.63;100.00
13434;BME280;6789;47.678;9.158;2023-04-29T02:08:38;96430.25;;;13.64;100.00
13434;BME280;6789;47.678;9.158;2023-04-29T02:13:29;96421.31;;;13.65;100.00
13434;BME280;6789;47.678;9.158;2023-04-29T02:18:21;96421.09;;;13.67;100.00
13434;BME280;6789;47.678;9.158;2023-04-29T02:23:13;96428.44;;;13.65;100.00
13434;BME280;6789;47.678;9.158;2023-04-29T02:28:04;96423.66;;;13.62;100.00
13434;BME280;6789;47.678;9.158;2023-04-29T02:32:56;96426.06;;;13.63;100.00
13434;BME280;6789;47.678;9.158;2023-04-29T02:37:48;96410.44;;;13.57;100.00
13434;BME280;6789;47.678;9.158;2023-04-29T02:42:40;96404.28;;;13.47;100.00
13434;BME280;6789;47.678;9.158;2023-04-29T02:47:32;96404.50;;;13.40;100.00
13434;BME280;6789;47.678;9.158;2023-04-29T02:52:23;96399.72;;;13.37;100.00
13434;BME280;6789;47.678;9.158;2023-04-29T02:57:15;96392.88;;;13.36;100.00
13434;BME280;6789;47.678;9.158;2023-04-29T03:02:07;96396.56;;;13.35;100.00
13434;BME280;6789;47.678;9.158;2023-04-29T03:06:59;96393.66;;;13.37;100.00
13434;BME280;6789;47.678;9.158;2023-04-29T03:11:51;96383.91;;;13.37;100.00
13434;BME280;6789;47.678;9.158;2023-04-29T03:16:44;96387.66;;;13.41;100.00
13434;BME280;6789;47.678;9.158;2023-04-29T03:21:36;96390.81;;;13.43;100.00
13434;BME280;6789;47.678;9.158;2023-04-29T03:26:28;96388.25;;;13.48;100.00
13434;BME280;6789;47.678;9.158;2023-04-29T03:31:20;96383.50;;;13.50;100.00
13434;BME280;6789;47.678;9.158;2023-04-29T03:36:13;96387.16;;;13.49;100.00
13434;BME280;6789;47.678;9.158;2023-04-29T03:41:05;96389.56;;;13.51;100.00
13434;BME280;6789;47.678;9.158;2023-04-29T03:45:59;96380.81;;;13.45;100.00
13434;BME280;6789;47.678;9.158;2023-04-29T03:56:01;96375.91;;;13.27;100.00
13434;BME280;6789;47.678;9.158;2023-04-29T04:00:54;96374.75;;;13.18;100.00
13434;BME280;6789;47.678;9.158;2023-04-29T04:05:47;96367.53;;;13.04;100.00
13434;BME280;6789;47.678;9.158;2023-04-29T04:10:39;96355.84;;;12.95;100.00
13434;BME280;6789;47.678;9.158;2023-04-29T04:15:30;96356.59;;;12.90;100.00
13434;BME280;6789;47.678;9.158;2023-04-29T04:20:22;96369.66;;;12.85;100.00
13434;BME280;6789;47.678;9.158;2023-04-29T04:25:18;96370.16;;;12.82;100.00
13434;BME280;6789;47.678;9.158;2023-04-29T04:30:23;96374.06;;;12.80;100.00
13434;BME280;6789;47.678;9.158;2023-04-29T04:35:15;96380.31;;;12.74;100.00
13434;BME280;6789;47.678;9.158;2023-04-29T04:40:08;96380.31;;;12.74;100.00
13434;BME280;6789;47.678;9.158;2023-04-29T04:45:01;96388.41;;;12.68;100.00
13434;BME280;6789;47.678;9.158;2023-04-29T04:49:54;96391.56;;;12.70;100.00
13434;BME280;6789;47.678;9.158;2023-04-29T04:54:46;96398.94;;;12.68;100.00
13434;BME280;6789;47.678;9.158;2023-04-29T04:59:39;96403.69;;;12.71;100.00
13434;BME280;6789;47.678;9.158;2023-04-29T05:04:32;96414.28;;;12.76;100.00
13434;BME280;6789;47.678;9.158;2023-04-29T05:09:24;96415.63;;;12.78;100.00
13434;BME280;6789;47.678;9.158;2023-04-29T05:14:17;96440.44;;;13.03;100.00
13434;BME280;6789;47.678;9.158;2023-04-29T05:19:09;96460.09;;;13.70;100.00
13434;BME280;6789;47.678;9.158;2023-04-29T05:24:00;96528.22;;;15.23;100.00
13434;BME280;6789;47.678;9.158;2023-04-29T05:28:52;96565.56;;;17.07;100.00
13434;BME280;6789;47.678;9.158;2023-04-29T05:33:45;96583.97;;;18.19;91.86
13434;BME280;6789;47.678;9.158;2023-04-29T05:38:37;96592.38;;;19.31;85.72
13434;BME280;6789;47.678;9.158;2023-04-29T05:43:29;96598.44;;;20.25;79.75
13434;BME280;6789;47.678;9.158;2023-04-29T05:48:21;96602.53;;;20.36;77.68
13434;BME280;6789;47.678;9.158;2023-04-29T05:53:12;96601.44;;;20.92;74.17
13434;BME280;6789;47.678;9.158;2023-04-29T05:58:04;96608.72;;;21.32;72.22
13434;BME280;6789;47.678;9.158;2023-04-29T06:02:56;96604.44;;;21.62;69.59
13434;BME280;6789;47.678;9.158;2023-04-29T06:07:49;96603.00;;;22.32;66.49
13434;BME280;6789;47.678;9.158;2023-04-29T06:12:42;96610.66;;;22.60;64.95
13434;BME280;6789;47.678;9.158;2023-04-29T06:17:34;96617.78;;;22.65;63.51
13434;BME280;6789;47.678;9.158;2023-04-29T06:22:35;96624.72;;;21.90;66.09
13434;BME280;6789;47.678;9.158;2023-04-29T06:27:28;96625.41;;;20.74;70.79
13434;BME280;6789;47.678;9.158;2023-04-29T06:32:20;96629.66;;;20.56;73.38
13434;BME280;6789;47.678;9.158;2023-04-29T06:37:14;96629.75;;;20.70;72.27
13434;BME280;6789;47.678;9.158;2023-04-29T06:42:20;96637.50;;;21.03;70.98
13434;BME280;6789;47.678;9.158;2023-04-29T06:47:12;96636.13;;;21.05;71.60
13434;BME280;6789;47.678;9.158;2023-04-29T06:52:20;96629.09;;;20.96;71.81
13434;BME280;6789;47.678;9.158;2023-04-29T06:57:12;96634.84;;;21.03;72.66
13434;BME280;6789;47.678;9.158;2023-04-29T07:02:07;96634.66;;;21.13;73.19
13434;BME280;6789;47.678;9.158;2023-04-29T07:06:59;96633.09;;;20.80;73.84
13434;BME280;6789;47.678;9.158;2023-04-29T07:11:56;96627.16;;;20.46;75.08
13434;BME280;6789;47.678;9.158;2023-04-29T07:16:56;96627.88;;;20.70;75.84
13434;BME280;6789;47.678;9.158;2023-04-29T07:21:57;96632.38;;;21.06;74.96
13434;BME280;6789;47.678;9.158;2023-04-29T07:27:03;96636.75;;;21.16;73.91
13434;BME280;6789;47.678;9.158;2023-04-29T07:31:56;96634.66;;;21.13;73.53
13434;BME280;6789;47.678;9.158;2023-04-29T07:37:02;96623.53;;;20.92;75.55
13434;BME280;6789;47.678;9.158;2023-04-29T07:42:08;96630.59;;;21.47;73.92
13434;BME280;6789;47.678;9.158;2023-04-29T07:47:14;96635.53;;;21.08;72.87
13434;BME280;6789;47.678;9.158;2023-04-29T07:52:20;96645.41;;;21.08;72.44
13434;BME280;6789;47.678;9.158;2023-04-29T07:57:20;96636.44;;;20.49;73.56
13434;BME280;6789;47.678;9.158;2023-04-29T08:02:26;96638.53;;;19.92;76.25
13434;BME280;6789;47.678;9.158;2023-04-29T08:07:32;96639.22;;;20.20;77.24
13434;BME280;6789;47.678;9.158;2023-04-29T08:12:38;96644.41;;;19.89;77.77
13434;BME280;6789;47.678;9.158;2023-04-29T08:17:30;96645.66;;;19.73;79.10
13434;BME280;6789;47.678;9.158;2023-04-29T08:22:22;96652.53;;;19.50;80.99
13434;BME280;6789;47.678;9.158;2023-04-29T08:27:14;96648.03;;;19.23;82.95
13434;BME280;6789;47.678;9.158;2023-04-29T08:32:21;96649.69;;;19.70;82.08
13434;BME280;6789;47.678;9.158;2023-04-29T08:37:27;96646.84;;;20.08;79.89
13434;BME280;6789;47.678;9.158;2023-04-29T08:42:35;96647.19;;;20.44;78.30
13434;BME280;6789;47.678;9.158;2023-04-29T08:47:30;96650.13;;;20.97;76.20
13434;BME280;6789;47.678;9.158;2023-04-29T08:52:25;96639.53;;;21.11;74.39
13434;BME280;6789;47.678;9.158;2023-04-29T08:57:35;96643.94;;;20.65;73.57
13434;BME280;6789;47.678;9.158;2023-04-29T09:02:50;96633.41;;;20.18;75.81
13434;BME280;6789;47.678;9.158;2023-04-29T09:07:59;96633.06;;;20.25;76.52
13434;BME280;6789;47.678;9.158;2023-04-29T09:12:57;96625.28;;;20.65;74.90
13434;BME280;6789;47.678;9.158;2023-04-29T09:17:49;96615.91;;;21.18;69.98
13434;BME280;6789;47.678;9.158;2023-04-29T09:22:56;96623.59;;;21.51;67.48
13434;BME280;6789;47.678;9.158;2023-04-29T09:27:49;96624.72;;;21.32;67.01
13434;BME280;6789;47.678;9.158;2023-04-29T09:32:42;96622.97;;;21.41;64.47
13434;BME280;6789;47.678;9.158;2023-04-29T09:37:50;96624.16;;;21.48;64.28
13434;BME280;6789;47.678;9.158;2023-04-29T09:42:44;96610.16;;;21.69;61.77
13434;BME280;6789;47.678;9.158;2023-04-29T09:48:01;96620.03;;;21.55;62.69
13434;BME280;6789;47.678;9.158;2023-04-29T09:53:29;96615.44;;;21.43;60.85
13434;BME280;6789;47.678;9.158;2023-04-29T09:58:36;96611.16;;;21.60;60.17
13434;BME280;6789;47.678;9.158;2023-04-29T10:03:39;96606.03;;;21.90;60.27
13434;BME280;6789;47.678;9.158;2023-04-29T10:08:48;96610.53;;;22.17;59.62
13434;BME280;6789;47.678;9.158;2023-04-29T10:13:42;96607.94;;;22.25;58.77
13434;BME280;6789;47.678;9.158;2023-04-29T10:18:47;96603.72;;;22.11;56.44
13434;BME280;6789;47.678;9.158;2023-04-29T10:23:57;96601.66;;;21.81;58.76
13434;BME280;6789;47.678;9.158;2023-04-29T10:29:04;96604.03;;;21.96;60.05
13434;BME280;6789;47.678;9.158;2023-04-29T10:34:22;96587.72;;;22.46;56.85
13434;BME280;6789;47.678;9.158;2023-04-29T10:56:13;96555.66;;;23.50;47.84
13434;BME280;6789;47.678;9.158;2023-04-29T11:01:44;96564.44;;;23.73;47.89
13434;BME280;6789;47.678;9.158;2023-04-29T11:06:54;96549.84;;;23.57;47.31
13434;BME280;6789;47.678;9.158;2023-04-29T11:12:02;96554.09;;;23.49;48.19
13434;BME280;6789;47.678;9.158;2023-04-29T11:16:59;96544.41;;;23.70;47.33
13434;BME280;6789;47.678;9.158;2023-04-29T11:22:28;96539.44;;;24.02;46.33
13434;BME280;6789;47.678;9.158;2023-04-29T11:53:42;96532.16;;;23.86;45.49
13434;BME280;6789;47.678;9.158;2023-04-29T11:59:05;96526.34;;;23.45;46.12
13434;BME280;6789;47.678;9.158;2023-04-29T12:04:13;96517.06;;;23.43;46.13
13434;BME280;6789;47.678;9.158;2023-04-29T12:09:23;96518.28;;;23.28;46.06
13434;BME280;6789;47.678;9.158;2023-04-29T12:14:28;96518.66;;;23.13;46.56
13434;BME280;6789;47.678;9.158;2023-04-29T12:19:22;96523.41;;;23.64;44.08
13434;BME280;6789;47.678;9.158;2023-04-29T12:24:15;96526.88;;;23.56;43.35
13434;BME280;6789;47.678;9.158;2023-04-29T12:29:10;96521.78;;;23.46;42.14
13434;BME280;6789;47.678;9.158;2023-04-29T12:34:16;96525.09;;;23.12;46.63
13434;BME280;6789;47.678;9.158;2023-04-29T12:39:28;96516.34;;;22.68;46.06
13434;BME280;6789;47.678;9.158;2023-04-29T12:44:36;96530.88;;;21.56;52.15
13434;BME280;6789;47.678;9.158;2023-04-29T12:49:46;96536.47;;;20.51;52.44
13434;BME280;6789;47.678;9.158;2023-04-29T12:54:39;96539.66;;;20.35;51.98
13434;BME280;6789;47.678;9.158;2023-04-29T12:59:34;96545.13;;;19.88;58.35
13434;BME280;6789;47.678;9.158;2023-04-29T13:04:26;96551.28;;;19.65;65.68
13434;BME280;6789;47.678;9.158;2023-04-29T13:09:19;96562.06;;;18.75;68.61
13434;BME280;6789;47.678;9.158;2023-04-29T13:14:25;96570.69;;;18.91;65.55
13434;BME280;6789;47.678;9.158;2023-04-29T13:19:34;96589.78;;;18.93;70.84
13434;BME280;6789;47.678;9.158;2023-04-29T13:24:41;96581.56;;;18.89;68.67
13434;BME280;6789;47.678;9.158;2023-04-29T13:29:47;96572.22;;;18.97;73.85
13434;BME280;6789;47.678;9.158;2023-04-29T13:34:55;96566.34;;;19.28;72.31
13434;BME280;6789;47.678;9.158;2023-04-29T13:39:55;96565.06;;;19.44;69.79
13434;BME280;6789;47.678;9.158;2023-04-29T13:44:48;96562.22;;;19.40;69.12
13434;BME280;6789;47.678;9.158;2023-04-29T13:50:08;96555.88;;;19.78;72.34
13434;BME280;6789;47.678;9.158;2023-04-29T13:55:29;96564.59;;;19.65;63.97
13434;BME280;6789;47.678;9.158;2023-04-29T14:00:36;96571.03;;;19.36;68.39
13434;BME280;6789;47.678;9.158;2023-04-29T14:05:45;96553.94;;;19.42;70.84
13434;BME280;6789;47.678;9.158;2023-04-29T14:10:37;96558.06;;;19.53;68.06
13434;BME280;6789;47.678;9.158;2023-04-29T14:15:29;96553.66;;;19.20;70.14
13434;BME280;6789;47.678;9.158;2023-04-29T14:20:21;96548.25;;;19.02;69.85
13434;BME280;6789;47.678;9.158;2023-04-29T14:25:28;96549.72;;;18.56;70.98
13434;BME280;6789;47.678;9.158;2023-04-29T14:30:28;96560.72;;;18.45;71.30
13434;BME280;6789;47.678;9.158;2023-04-29T14:46:12;96533.69;;;18.94;60.52
13434;BME280;6789;47.678;9.158;2023-04-29T14:51:18;96553.03;;;19.28;64.94
13434;BME280;6789;47.678;9.158;2023-04-29T14:56:26;96558.97;;;19.67;65.65
13434;BME280;6789;47.678;9.158;2023-04-29T15:01:32;96558.19;;;19.85;64.92
13434;BME280;6789;47.678;9.158;2023-04-29T15:06:40;96557.75;;;20.19;62.85
13434;BME280;6789;47.678;9.158;2023-04-29T15:11:46;96567.19;;;20.30;63.55
13434;BME280;6789;47.678;9.158;2023-04-29T15:16:51;96571.06;;;20.19;61.41
13434;BME280;6789;47.678;9.158;2023-04-29T15:21:58;96580.78;;;20.10;61.83
13434;BME280;6789;47.678;9.158;2023-04-29T15:27:03;96586.44;;;20.04;60.59
13434;BME280;6789;47.678;9.158;2023-04-29T15:32:17;96578.97;;;19.83;58.52
13434;BME280;6789;47.678;9.158;2023-04-29T15:37:12;96574.47;;;19.83;60.02
13434;BME280;6789;47.678;9.158;2023-04-29T15:42:04;96569.53;;;20.13;58.60
13434;BME280;6789;47.678;9.158;2023-04-29T15:47:10;96570.22;;;20.42;56.10
13434;BME280;6789;47.678;9.158;2023-04-29T15:53:03;96578.47;;;20.59;56.26
13434;BME280;6789;47.678;9.158;2023-04-29T15:58:12;96571.50;;;20.95;55.27
13434;BME280;6789;47.678;9.158;2023-04-29T16:03:28;96567.09;;;21.04;53.66
13434;BME280;6789;47.678;9.158;2023-04-29T16:34:10;96604.41;;;20.35;57.07
13434;BME280;6789;47.678;9.158;2023-04-29T16:39:02;96606.13;;;20.26;56.92
13434;BME280;6789;47.678;9.158;2023-04-29T16:43:56;96608.13;;;20.16;56.04
13434;BME280;6789;47.678;9.158;2023-04-29T16:49:02;96618.19;;;20.01;54.46
13434;BME280;6789;47.678;9.158;2023-04-29T16:54:08;96619.88;;;19.92;54.21
13434;BME280;6789;47.678;9.158;2023-04-29T16:59:04;96628.03;;;19.77;55.20
13434;BME280;6789;47.678;9.158;2023-04-29T17:03:57;96619.59;;;19.70;54.92
13434;BME280;6789;47.678;9.158;2023-04-29T17:08:57;96622.50;;;19.50;56.29
13434;BME280;6789;47.678;9.158;2023-04-29T17:13:54;96636.72;;;19.35;55.59
13434;BME280;6789;47.678;9.158;2023-04-29T17:18:46;96633.88;;;19.27;55.60
13434;BME280;6789;47.678;9.158;2023-04-29T17:23:52;96637.25;;;19.09;55.33
13434;BME280;6789;47.678;9.158;2023-04-29T17:28:46;96642.31;;;19.06;56.24
13434;BME280;6789;47.678;9.158;2023-04-29T17:33:52;96652.59;;;18.84;55.62
13434;BME280;6789;47.678;9.158;2023-04-29T17:39:04;96659.97;;;18.54;58.09
13434;BME280;6789;47.678;9.158;2023-04-29T17:44:12;96668.03;;;18.34;60.48
13434;BME280;6789;47.678;9.158;2023-04-29T17:49:04;96666.56;;;18.03;62.47
13434;BME280;6789;47.678;9.158;2023-04-29T17:53:58;96675.69;;;17.77;63.74
13434;BME280;6789;47.678;9.158;2023-04-29T17:58:50;96700.16;;;17.49;65.61
13434;BME280;6789;47.678;9.158;2023-04-29T18:04:01;96701.78;;;17.30;66.07
13434;BME280;6789;47.678;9.158;2023-04-29T18:09:07;96715.28;;;17.14;67.16
13434;BME280;6789;47.678;9.158;2023-04-29T18:14:13;96717.63;;;16.91;68.24
13434;BME280;6789;47.678;9.158;2023-04-29T18:19:18;96734.03;;;16.68;70.00
13434;BME280;6789;47.678;9.158;2023-04-29T18:24:11;96733.19;;;16.47;71.71
13434;BME280;6789;47.678;9.158;2023-04-29T18:29:16;96727.06;;;16.37;73.21
13434;BME280;6789;47.678;9.158;2023-04-29T18:34:22;96735.44;;;16.14;74.72
13434;BME280;6789;47.678;9.158;2023-04-29T18:39:15;96746.75;;;16.05;74.64
13434;BME280;6789;47.678;9.158;2023-04-29T18:44:09;96752.78;;;15.90;75.31
13434;BME280;6789;47.678;9.158;2023-04-29T18:49:17;96759.75;;;15.65;76.28
13434;BME280;6789;47.678;9.158;2023-04-29T18:54:22;96773.72;;;15.61;75.60
13434;BME280;6789;47.678;9.158;2023-04-29T18:59:28;96778.00;;;15.30;76.34
13434;BME280;6789;47.678;9.158;2023-04-29T19:04:35;96796.94;;;15.22;76.42
13434;BME280;6789;47.678;9.158;2023-04-29T19:09:44;96811.00;;;15.28;76.64
13434;BME280;6789;47.678;9.158;2023-04-29T19:14:54;96818.16;;;15.06;77.15
13434;BME280;6789;47.678;9.158;2023-04-29T19:20:00;96827.59;;;14.97;78.11
13434;BME280;6789;47.678;9.158;2023-04-29T19:25:06;96831.03;;;14.76;79.58
13434;BME280;6789;47.678;9.158;2023-04-29T19:30:13;96829.41;;;14.70;79.90
13434;BME280;6789;47.678;9.158;2023-04-29T19:35:22;96843.63;;;14.69;80.85
13434;BME280;6789;47.678;9.158;2023-04-29T19:40:29;96859.22;;;14.49;80.80
13434;BME280;6789;47.678;9.158;2023-04-29T19:45:35;96847.81;;;14.44;81.72
13434;BME280;6789;47.678;9.158;2023-04-29T19:50:33;96857.53;;;14.22;82.53
13434;BME280;6789;47.678;9.158;2023-04-29T19:55:33;96861.66;;;14.13;82.41
13434;BME280;6789;47.678;9.158;2023-04-29T20:00:39;96861.84;;;14.28;81.97
13434;BME280;6789;47.678;9.158;2023-04-29T20:05:31;96859.72;;;14.09;81.88
13434;BME280;6789;47.678;9.158;2023-04-29T20:10:27;96865.31;;;14.12;82.47
13434;BME280;6789;47.678;9.158;2023-04-29T20:15:22;96878.50;;;14.12;82.19
13434;BME280;6789;47.678;9.158;2023-04-29T20:20:19;96875.16;;;14.17;80.76
13434;BME280;6789;47.678;9.158;2023-04-29T20:25:12;96873.78;;;14.14;80.64
13434;BME280;6789;47.678;9.158;2023-04-29T20:30:06;96878.88;;;14.04;80.99
13434;BME280;6789;47.678;9.158;2023-04-29T20:35:14;96876.56;;;14.08;80.99
13434;BME280;6789;47.678;9.158;2023-04-29T20:40:12;96877.72;;;13.79;81.71
13434;BME280;6789;47.678;9.158;2023-04-29T20:45:06;96887.94;;;13.75;81.96
13434;BME280;6789;47.678;9.158;2023-04-29T20:50:00;96887.31;;;13.85;81.41
13434;BME280;6789;47.678;9.158;2023-04-29T20:54:52;96891.38;;;13.76;81.54
13434;BME280;6789;47.678;9.158;2023-04-29T20:59:44;96900.22;;;13.70;82.47
13434;BME280;6789;47.678;9.158;2023-04-29T21:04:51;96893.13;;;13.54;83.10
13434;BME280;6789;47.678;9.158;2023-04-29T21:09:52;96892.56;;;13.52;83.75
13434;BME280;6789;47.678;9.158;2023-04-29T21:14:45;96890.88;;;13.46;83.80
13434;BME280;6789;47.678;9.158;2023-04-29T21:19:38;96898.38;;;13.54;83.55
13434;BME280;6789;47.678;9.158;2023-04-29T21:24:30;96890.56;;;13.59;84.01
13434;BME280;6789;47.678;9.158;2023-04-29T21:29:22;96900.94;;;13.65;83.43
13434;BME280;6789;47.678;9.158;2023-04-29T21:34:15;96899.03;;;13.61;83.68
13434;BME280;6789;47.678;9.158;2023-04-29T21:39:13;96893.34;;;13.69;83.39
13434;BME280;6789;47.678;9.158;2023-04-29T21:44:21;96895.66;;;13.49;84.75
13434;BME280;6789;47.678;9.158;2023-04-29T21:49:17;96895.56;;;13.44;84.98
13434;BME280;6789;47.678;9.158;2023-04-29T21:54:24;96890.28;;;13.44;85.33
13434;BME280;6789;47.678;9.158;2023-04-29T21:59:17;96899.09;;;13.50;85.55
13434;BME280;6789;47.678;9.158;2023-04-29T22:04:10;96893.50;;;13.46;85.71
13434;BME280;6789;47.678;9.158;2023-04-29T22:09:16;96892.38;;;13.42;86.48
13434;BME280;6789;47.678;9.158;2023-04-29T22:14:10;96896.19;;;13.35;88.08
13434;BME280;6789;47.678;9.158;2023-04-29T22:19:03;96893.47;;;13.30;88.25
13434;BME280;6789;47.678;9.158;2023-04-29T22:24:00;96891.53;;;13.25;88.60
13434;BME280;6789;47.678;9.158;2023-04-29T22:29:06;96894.41;;;13.24;89.62
13434;BME280;6789;47.678;9.158;2023-04-29T22:34:08;96886.16;;;13.32;89.31
13434;BME280;6789;47.678;9.158;2023-04-29T22:39:15;96883.59;;;13.37;89.06
13434;BME280;6789;47.678;9.158;2023-04-29T22:44:21;96889.97;;;13.41;88.86
13434;BME280;6789;47.678;9.158;2023-04-29T22:49:22;96887.59;;;13.39;89.55
13434;BME280;6789;47.678;9.158;2023-04-29T22:54:29;96883.19;;;13.28;90.76
13434;BME280;6789;47.678;9.158;2023-04-29T22:59:26;96886.28;;;13.25;90.90
13434;BME280;6789;47.678;9.158;2023-04-29T23:04:18;96892.69;;;13.29;90.34
13434;BME280;6789;47.678;9.158;2023-04-29T23:09:27;96902.56;;;13.22;91.35
13434;BME280;6789;47.678;9.158;2023-04-29T23:14:33;96905.69;;;13.36;91.05
13434;BME280;6789;47.678;9.158;2023-04-29T23:19:29;96898.41;;;13.26;90.81
13434;BME280;6789;47.678;9.158;2023-04-29T23:24:34;96902.19;;;13.02;91.46
13434;BME280;6789;47.678;9.158;2023-04-29T23:29:36;96897.25;;;13.06;91.58
13434;BME280;6789;47.678;9.158;2023-04-29T23:34:32;96902.69;;;13.16;90.95
13434;BME280;6789;47.678;9.158;2023-04-29T23:39:26;96893.03;;;12.93;91.59
13434;BME280;6789;47.678;9.158;2023-04-29T23:44:33;96897.69;;;13.03;90.83
13434;BME280;6789;47.678;9.158;2023-04-29T23:49:27;96892.16;;;12.88;90.94
13434;BME280;6789;47.678;9.158;2023-04-29T23:54:19;96893.53;;;12.79;92.21
13434;BME280;6789;47.678;9.158;2023-04-29T23:59:25;96890.09;;;12.79;92.14
